createdAt,value
2022-11-16T00:01:26.816Z,115728.34
2022-11-16T00:04:00.225Z,115728.34
2022-11-16T00:06:30.400Z,115728.34
2022-11-16T00:09:18.829Z,115728.34
2022-11-16T00:11:51.382Z,115728.34
2022-11-16T00:14:22.710Z,115728.34
2022-11-16T00:16:52.118Z,115728.34
2022-11-16T00:19:21.109Z,115728.34
2022-11-16T00:21:50.108Z,115728.34
2022-11-16T00:24:21.087Z,115728.34
2022-11-16T00:26:51.864Z,115728.34
2022-11-16T00:29:22.499Z,115728.34
2022-11-16T00:31:58.004Z,115728.34
2022-11-16T00:34:27.265Z,115728.34
2022-11-16T00:36:56.381Z,115728.34
2022-11-16T00:39:25.478Z,115728.34
2022-11-16T00:41:55.924Z,115728.34
2022-11-16T00:44:24.680Z,115728.34
2022-11-16T00:46:53.872Z,115728.34
2022-11-16T00:49:23.196Z,115728.34
2022-11-16T00:51:54.494Z,115728.34
2022-11-16T00:54:24.025Z,115728.34
2022-11-16T00:56:52.723Z,115728.34
2022-11-16T00:59:22.711Z,115728.34
2022-11-16T01:01:54.106Z,115728.34
2022-11-16T01:04:22.571Z,115728.34
2022-11-16T01:06:51.341Z,115728.34
2022-11-16T01:09:20.247Z,115728.34
2022-11-16T01:12:07.375Z,115728.34
2022-11-16T01:14:38.121Z,115728.34
2022-11-16T01:17:07.728Z,115728.34
2022-11-16T01:19:37.002Z,115728.34
2022-11-16T01:22:05.981Z,115728.34
2022-11-16T01:24:34.909Z,115728.34
2022-11-16T01:27:28.727Z,115728.34
2022-11-16T01:30:03.474Z,115728.34
2022-11-16T01:32:34.523Z,115728.34
2022-11-16T01:35:10.481Z,115728.34
2022-11-16T01:37:44.733Z,115728.34
2022-11-16T01:40:17.361Z,115728.34
2022-11-16T01:42:51.620Z,115728.34
2022-11-16T01:45:35.476Z,115728.34
2022-11-16T01:48:21.626Z,115728.34
2022-11-16T01:50:58.406Z,115728.34
2022-11-16T01:53:30.300Z,115728.34
2022-11-16T01:56:16.736Z,115728.34
2022-11-16T01:59:17.895Z,115728.34
2022-11-16T02:01:52.056Z,115728.34
2022-11-16T02:07:30.450Z,115728.34
2022-11-16T02:10:12.194Z,115728.34
2022-11-16T02:16:05.555Z,115728.34
2022-11-16T02:18:54.642Z,115728.34
2022-11-16T02:21:50.066Z,115728.34
2022-11-16T02:24:53.332Z,115728.34
2022-11-16T02:28:06.523Z,115728.34
2022-11-16T02:30:43.367Z,115728.34
2022-11-16T02:33:18.518Z,115728.34
2022-11-16T02:35:52.333Z,115728.34
2022-11-16T02:38:27.376Z,115728.34
2022-11-16T02:41:03.153Z,115728.34
2022-11-16T02:43:41.378Z,115728.34
2022-11-16T02:46:18.047Z,115728.34
2022-11-16T02:48:52.425Z,115728.34
2022-11-16T02:51:24.101Z,115728.34
2022-11-16T02:54:03.199Z,115728.34
2022-11-16T02:56:53.097Z,115728.34
2022-11-16T02:59:36.146Z,115728.34
2022-11-16T03:02:17.013Z,115728.34
2022-11-16T03:04:48.653Z,115728.34
2022-11-16T03:07:21.789Z,115728.34
2022-11-16T03:22:27.945Z,115728.34
2022-11-16T03:25:38.273Z,115728.34
2022-11-16T03:28:20.783Z,115728.34
2022-11-16T03:31:02.958Z,115728.34
2022-11-16T03:33:54.095Z,115728.34
2022-11-16T03:36:30.263Z,115728.34
2022-11-16T03:39:04.001Z,115728.34
2022-11-16T03:41:43.604Z,115728.34
2022-11-16T03:44:20.485Z,115728.34
2022-11-16T03:47:01.016Z,115728.34
2022-11-16T03:49:34.697Z,115728.34
2022-11-16T03:52:14.404Z,115728.34
2022-11-16T03:54:49.532Z,115728.34
2022-11-16T03:57:21.948Z,115728.34
2022-11-16T04:00:14.379Z,115728.34
2022-11-16T04:07:22.906Z,115728.34
2022-11-16T04:13:28.924Z,115728.34
2022-11-16T04:16:31.296Z,115728.34
2022-11-16T04:19:58.311Z,115728.34
2022-11-16T04:23:03.483Z,115728.34
2022-11-16T04:25:38.871Z,115728.34
2022-11-16T04:28:14.948Z,115728.34
2022-11-16T04:31:08.233Z,115728.34
2022-11-16T04:33:57.659Z,115728.34
2022-11-16T04:36:47.273Z,115728.34
2022-11-16T04:39:18.498Z,115728.34
2022-11-16T04:42:05.396Z,115728.34
2022-11-16T04:44:50.386Z,115728.34
2022-11-16T04:47:19.814Z,115728.34
2022-11-16T04:49:49.565Z,115728.34
2022-11-16T04:52:24.104Z,115728.34
2022-11-16T04:54:56.437Z,115728.34
2022-11-16T04:57:25.431Z,115728.34
2022-11-16T04:59:54.167Z,115728.34
2022-11-16T05:02:22.876Z,115728.34
2022-11-16T05:04:58.944Z,115728.34
2022-11-16T05:07:28.979Z,115728.34
2022-11-16T05:10:08.499Z,115728.34
2022-11-16T05:12:37.851Z,115728.34
2022-11-16T05:15:09.723Z,115728.34
2022-11-16T05:17:38.981Z,115728.34
2022-11-16T05:20:31.084Z,115728.34
2022-11-16T05:23:05.734Z,115728.34
2022-11-16T05:25:42.464Z,115728.34
2022-11-16T05:28:13.433Z,115728.34
2022-11-16T05:30:46.404Z,115728.34
2022-11-16T05:33:19.440Z,115728.34
2022-11-16T05:35:50.985Z,115728.34
2022-11-16T05:38:21.158Z,115728.34
2022-11-16T05:40:55.197Z,115728.34
2022-11-16T05:43:24.454Z,115728.34
2022-11-16T05:46:16.725Z,115728.34
2022-11-16T05:48:46.500Z,115728.34
2022-11-16T05:51:15.162Z,115728.34
2022-11-16T05:53:44.319Z,115728.34
2022-11-16T05:56:18.706Z,115728.34
2022-11-16T05:58:48.433Z,115728.34
2022-11-16T06:01:17.471Z,115728.34
2022-11-16T06:03:46.344Z,115728.34
2022-11-16T06:06:17.778Z,115728.34
2022-11-16T06:08:46.564Z,115728.34
2022-11-16T06:11:21.918Z,115728.34
2022-11-16T06:13:51.245Z,115728.34
2022-11-16T06:16:20.528Z,115728.34
2022-11-16T06:18:52.354Z,115728.34
2022-11-16T06:21:22.761Z,115728.34
2022-11-16T06:23:51.659Z,115728.34
2022-11-16T06:26:22.455Z,115728.34
2022-11-16T06:28:51.888Z,115728.34
2022-11-16T06:31:22.971Z,115728.34
2022-11-16T06:33:52.378Z,115728.34
2022-11-16T06:36:25.999Z,115728.34
2022-11-16T06:38:55.416Z,115728.34
2022-11-16T06:41:27.022Z,115728.34
2022-11-16T06:43:55.953Z,115728.34
2022-11-16T06:46:34.162Z,115728.34
2022-11-16T06:49:03.065Z,115728.34
2022-11-16T06:51:32.200Z,115728.34
2022-11-16T06:54:00.960Z,115728.34
2022-11-16T06:56:31.645Z,115728.34
2022-11-16T06:59:06.675Z,115728.34
2022-11-16T07:01:36.675Z,115728.34
2022-11-16T07:04:16.078Z,115728.34
2022-11-16T07:06:51.480Z,115728.34
2022-11-16T07:09:20.623Z,115728.34
2022-11-16T07:11:51.196Z,115728.34
2022-11-16T07:14:22.248Z,115728.34
2022-11-16T07:16:54.974Z,115728.34
2022-11-16T07:19:28.419Z,115728.34
2022-11-16T07:21:57.007Z,115728.34
2022-11-16T07:24:25.760Z,115728.34
2022-11-16T07:26:55.959Z,115728.34
2022-11-16T07:29:27.751Z,115728.34
2022-11-16T07:32:12.252Z,115728.34
2022-11-16T07:35:18.193Z,115728.34
2022-11-16T07:37:47.090Z,115728.34
2022-11-16T07:40:17.625Z,115728.34
2022-11-16T07:42:49.496Z,115728.34
2022-11-16T07:45:38.460Z,115728.34
2022-11-16T07:48:09.581Z,115728.34
2022-11-16T07:51:00.515Z,115728.34
2022-11-16T07:53:30.920Z,115728.34
2022-11-16T07:55:59.774Z,115728.34
2022-11-16T07:58:34.026Z,115728.34
2022-11-16T08:01:06.472Z,115728.34
2022-11-16T08:03:37.875Z,115728.34
2022-11-16T08:06:09.677Z,115728.34
2022-11-16T08:08:38.259Z,115728.34
2022-11-16T08:11:09.315Z,115728.34
2022-11-16T08:13:41.435Z,115728.34
2022-11-16T08:16:14.059Z,115728.34
2022-11-16T08:18:44.322Z,115728.34
2022-11-16T08:21:16.028Z,115728.34
2022-11-16T08:23:46.551Z,115728.34
2022-11-16T08:26:18.195Z,115728.34
2022-11-16T08:28:53.975Z,115728.34
2022-11-16T08:31:30.295Z,115728.34
2022-11-16T08:34:08.965Z,115728.34
2022-11-16T08:36:41.112Z,115728.34
2022-11-16T08:39:10.467Z,115728.34
2022-11-16T08:41:42.331Z,115728.34
2022-11-16T08:44:15.599Z,115728.34
2022-11-16T08:46:47.911Z,115726.31
2022-11-16T08:49:23.246Z,115726.31
2022-11-16T08:51:51.903Z,115467.22
2022-11-16T08:54:24.477Z,115467.22
2022-11-16T08:56:53.632Z,115467.22
2022-11-16T08:59:23.861Z,115208.13
2022-11-16T09:01:55.883Z,114949.09
2022-11-16T09:04:24.660Z,114431.03
2022-11-16T09:06:55.027Z,114690.03
2022-11-16T09:09:24.046Z,114172.03
2022-11-16T09:11:55.924Z,113913.03
2022-11-16T09:14:29.104Z,113395.13
2022-11-16T09:16:57.912Z,113913.03
2022-11-16T09:19:26.941Z,113136.22
2022-11-16T09:21:55.772Z,113136.22
2022-11-16T09:24:24.980Z,113654.06
2022-11-16T09:26:56.890Z,111841.88
2022-11-16T09:29:27.974Z,111324.28
2022-11-16T09:31:56.872Z,111065.50
2022-11-16T09:34:26.025Z,110548.00
2022-11-16T09:36:54.613Z,110806.75
2022-11-16T09:39:31.711Z,112100.69
2022-11-16T09:42:28.128Z,112100.69
2022-11-16T09:45:08.583Z,112100.69
2022-11-16T09:47:49.283Z,111583.06
2022-11-16T09:50:28.197Z,111583.06
2022-11-16T09:53:01.709Z,110548.00
2022-11-16T09:55:36.369Z,109513.28
2022-11-16T09:58:12.973Z,109513.28
2022-11-16T10:00:49.209Z,108220.28
2022-11-16T10:03:18.395Z,107186.22
2022-11-16T10:06:03.086Z,106410.88
2022-11-16T10:08:44.182Z,106410.88
2022-11-16T10:11:40.426Z,107703.22
2022-11-16T10:14:32.919Z,107703.22
2022-11-16T10:17:08.838Z,107961.72
2022-11-16T10:19:47.123Z,104085.91
2022-11-16T10:22:31.703Z,102794.91
2022-11-16T10:25:02.537Z,102794.91
2022-11-16T10:27:43.061Z,100730.31
2022-11-16T10:30:14.360Z,102278.66
2022-11-16T10:32:51.603Z,99182.69
2022-11-16T10:35:26.954Z,99182.69
2022-11-16T10:37:59.175Z,98151.31
2022-11-16T10:40:31.457Z,95059.00
2022-11-16T10:43:07.484Z,94286.38
2022-11-16T10:45:41.427Z,94543.91
2022-11-16T10:48:24.372Z,95831.81
2022-11-16T10:50:54.516Z,90940.22
2022-11-16T10:53:33.867Z,85798.66
2022-11-16T10:56:14.361Z,87597.34
2022-11-16T10:58:58.428Z,80921.25
2022-11-16T11:01:37.167Z,84514.44
2022-11-16T11:04:22.134Z,84000.91
2022-11-16T11:06:52.731Z,82974.03
2022-11-16T11:09:28.200Z,84771.25
2022-11-16T11:12:21.714Z,81947.50
2022-11-16T11:15:02.860Z,81177.78
2022-11-16T11:17:33.762Z,76563.09
2022-11-16T11:20:07.327Z,75538.44
2022-11-16T11:22:43.734Z,72210.47
2022-11-16T11:25:21.908Z,70208.03
2022-11-16T11:27:52.518Z,68055.03
2022-11-16T11:30:22.525Z,72210.47
2022-11-16T11:32:53.273Z,63986.41
2022-11-16T11:35:29.403Z,63679.31
2022-11-16T11:38:06.294Z,60940.63
2022-11-16T11:40:36.356Z,59448.63
2022-11-16T11:43:07.260Z,59809.13
2022-11-16T11:45:46.253Z,58875.09
2022-11-16T11:48:28.681Z,58980.63
2022-11-16T11:51:02.517Z,57577.09
2022-11-16T11:53:53.362Z,56743.19
2022-11-16T11:56:26.356Z,55607.09
2022-11-16T11:58:56.103Z,55280.88
2022-11-16T12:01:55.558Z,55195.34
2022-11-16T12:04:54.583Z,55197.34
2022-11-16T12:07:40.425Z,54972.56
2022-11-16T12:10:18.294Z,55058.09
2022-11-16T12:12:57.424Z,55002.41
2022-11-16T12:15:47.921Z,54899.00
2022-11-16T12:18:37.656Z,54885.06
2022-11-16T12:21:13.515Z,54739.88
2022-11-16T12:27:48.212Z,54586.75
2022-11-16T12:30:21.808Z,54600.66
2022-11-16T12:33:06.020Z,54453.50
2022-11-16T12:35:46.071Z,54433.63
2022-11-16T12:38:28.878Z,54441.56
2022-11-16T12:41:21.734Z,54407.78
2022-11-16T12:44:13.130Z,54250.69
2022-11-16T12:46:57.296Z,54206.94
2022-11-16T12:49:46.886Z,54268.56
2022-11-16T12:52:33.328Z,54302.38
2022-11-16T12:55:27.323Z,54397.81
2022-11-16T12:58:09.069Z,54433.63
2022-11-16T13:00:51.002Z,54568.84
2022-11-16T13:03:25.299Z,54628.50
2022-11-16T13:05:59.378Z,54477.38
2022-11-16T13:08:45.781Z,54377.94
2022-11-16T13:11:20.307Z,54576.81
2022-11-16T13:13:54.539Z,54628.50
2022-11-16T13:16:25.667Z,54544.97
2022-11-16T13:18:55.617Z,54481.34
2022-11-16T13:21:35.427Z,54354.06
2022-11-16T13:24:23.999Z,54336.19
2022-11-16T13:27:13.991Z,54342.16
2022-11-16T13:29:49.046Z,54159.19
2022-11-16T13:32:24.533Z,54035.91
2022-11-16T13:34:54.169Z,54027.97
2022-11-16T13:37:49.375Z,53916.63
2022-11-16T13:40:30.289Z,53926.56
2022-11-16T13:43:08.547Z,53944.47
2022-11-16T13:45:43.075Z,53964.34
2022-11-16T13:48:20.264Z,53874.88
2022-11-16T13:50:53.455Z,53954.41
2022-11-16T13:56:20.914Z,53912.66
2022-11-16T13:58:56.506Z,53904.69
2022-11-16T14:01:26.830Z,53896.75
2022-11-16T14:04:43.202Z,53880.84
2022-11-16T14:07:32.078Z,53932.53
2022-11-16T14:10:01.766Z,53928.56
2022-11-16T14:12:58.838Z,53888.78
2022-11-16T14:15:30.796Z,53932.53
2022-11-16T14:18:37.476Z,53976.28
2022-11-16T14:21:16.968Z,53922.59
2022-11-16T14:24:16.744Z,53972.28
2022-11-16T14:27:00.014Z,54059.78
2022-11-16T14:29:40.679Z,54119.44
2022-11-16T14:32:21.299Z,54103.53
2022-11-16T14:34:54.493Z,54149.25
2022-11-16T14:37:32.750Z,54139.31
2022-11-16T14:40:06.201Z,54163.19
2022-11-16T14:43:01.894Z,54187.03
2022-11-16T14:45:38.772Z,54230.78
2022-11-16T14:48:18.331Z,54236.75
2022-11-16T14:51:01.197Z,54276.53
2022-11-16T14:53:32.471Z,54256.63
2022-11-16T14:56:11.221Z,54262.59
2022-11-16T14:58:41.656Z,54260.63
2022-11-16T15:01:16.260Z,54210.91
2022-11-16T15:03:57.468Z,54262.59
2022-11-16T15:06:28.579Z,54266.59
2022-11-16T15:09:01.184Z,54300.38
2022-11-16T15:11:47.575Z,54290.44
2022-11-16T15:14:20.829Z,54342.16
2022-11-16T15:16:51.884Z,54366.00
2022-11-16T15:19:21.904Z,54445.56
2022-11-16T15:21:57.876Z,54497.25
2022-11-16T15:24:30.970Z,54554.94
2022-11-16T15:27:11.911Z,54704.09
2022-11-16T15:29:40.947Z,54887.06
2022-11-16T15:32:17.353Z,55081.97
2022-11-16T15:34:49.780Z,55296.78
2022-11-16T15:37:28.704Z,55676.72
2022-11-16T15:39:58.587Z,55885.63
2022-11-16T15:42:29.931Z,56279.56
2022-11-16T15:45:02.813Z,56812.84
2022-11-16T15:47:32.382Z,57238.72
2022-11-16T15:50:01.522Z,57634.81
2022-11-16T15:52:45.202Z,57780.13
2022-11-16T15:55:32.346Z,58062.78
2022-11-16T15:58:04.436Z,58624.22
2022-11-16T16:00:36.298Z,59321.16
2022-11-16T16:03:09.074Z,59711.53
2022-11-16T16:05:39.772Z,59954.50
2022-11-16T16:08:30.546Z,60673.66
2022-11-16T16:11:01.804Z,60994.41
2022-11-16T16:13:33.916Z,61915.06
2022-11-16T16:16:23.802Z,62411.34
2022-11-16T16:18:54.541Z,63230.69
2022-11-16T16:21:24.393Z,63635.44
2022-11-16T16:23:56.143Z,63745.13
2022-11-16T16:26:25.233Z,64548.81
2022-11-16T16:28:57.027Z,64780.19
2022-11-16T16:31:25.955Z,66535.97
2022-11-16T16:33:56.105Z,67150.69
2022-11-16T16:36:25.278Z,68031.06
2022-11-16T16:38:56.965Z,67931.25
2022-11-16T16:41:25.416Z,68959.59
2022-11-16T16:43:54.843Z,69744.56
2022-11-16T16:46:23.532Z,72722.25
2022-11-16T16:48:53.246Z,73490.06
2022-11-16T16:51:21.819Z,74258.06
2022-11-16T16:53:57.002Z,74002.03
2022-11-16T16:56:27.662Z,74258.06
2022-11-16T16:58:56.812Z,76819.28
2022-11-16T17:01:26.893Z,77844.31
2022-11-16T17:03:55.674Z,77075.53
2022-11-16T17:06:25.575Z,77844.31
2022-11-16T17:08:54.745Z,77331.78
2022-11-16T17:11:23.395Z,79126.03
2022-11-16T17:13:53.454Z,78869.66
2022-11-16T17:16:22.444Z,79382.44
2022-11-16T17:18:55.656Z,79895.28
2022-11-16T17:21:24.375Z,80151.75
2022-11-16T17:23:53.281Z,80921.25
2022-11-16T17:26:22.462Z,82204.09
2022-11-16T17:28:56.071Z,83230.72
2022-11-16T17:31:25.124Z,84000.91
2022-11-16T17:33:54.234Z,84000.91
2022-11-16T17:36:23.282Z,84514.44
2022-11-16T17:38:52.351Z,84771.25
2022-11-16T17:41:22.926Z,85028.06
2022-11-16T17:43:54.634Z,84514.44
2022-11-16T17:46:25.912Z,85541.78
2022-11-16T17:48:55.312Z,85284.91
2022-11-16T17:51:25.993Z,85028.06
2022-11-16T17:53:54.936Z,85541.78
2022-11-16T17:56:27.158Z,86055.56
2022-11-16T17:58:58.626Z,85541.78
2022-11-16T18:01:29.147Z,85541.78
2022-11-16T18:03:58.701Z,85284.91
2022-11-16T18:06:27.860Z,85541.78
2022-11-16T18:08:56.645Z,86312.47
2022-11-16T18:11:27.028Z,87083.34
2022-11-16T18:13:59.171Z,88111.41
2022-11-16T18:16:29.602Z,88368.50
2022-11-16T18:19:00.155Z,88882.69
2022-11-16T18:21:29.021Z,89139.81
2022-11-16T18:24:00.409Z,89911.31
2022-11-16T18:26:29.062Z,90168.50
2022-11-16T18:28:59.379Z,90682.97
2022-11-16T18:31:28.238Z,90682.97
2022-11-16T18:33:57.147Z,90168.50
2022-11-16T18:36:26.303Z,90168.50
2022-11-16T18:38:54.997Z,90940.22
2022-11-16T18:41:26.613Z,91197.50
2022-11-16T18:43:57.188Z,91454.81
2022-11-16T18:46:28.798Z,92226.81
2022-11-16T18:48:58.082Z,92999.00
2022-11-16T18:51:28.483Z,93256.44
2022-11-16T18:53:57.389Z,93256.44
2022-11-16T18:56:27.846Z,91969.47
2022-11-16T18:58:56.986Z,91969.47
2022-11-16T19:01:28.629Z,91197.50
2022-11-16T19:03:58.080Z,90940.22
2022-11-16T19:06:26.775Z,91454.81
2022-11-16T19:08:59.607Z,90940.22
2022-11-16T19:11:29.496Z,89911.31
2022-11-16T19:14:03.865Z,90682.97
2022-11-16T19:16:34.707Z,90682.97
2022-11-16T19:19:04.099Z,90168.50
2022-11-16T19:21:33.003Z,89911.31
2022-11-16T19:24:02.827Z,90425.72
2022-11-16T19:26:31.535Z,90940.22
2022-11-16T19:29:01.688Z,90682.97
2022-11-16T19:31:32.268Z,90682.97
2022-11-16T19:34:04.581Z,90425.72
2022-11-16T19:36:36.323Z,89911.31
2022-11-16T19:39:06.014Z,90425.72
2022-11-16T19:41:35.407Z,90682.97
2022-11-16T19:44:04.004Z,90940.22
2022-11-16T19:46:33.863Z,91197.50
2022-11-16T19:49:04.227Z,91197.50
2022-11-16T19:51:34.345Z,91712.13
2022-11-16T19:54:03.793Z,91454.81
2022-11-16T19:56:32.675Z,91454.81
2022-11-16T19:59:01.715Z,91712.13
2022-11-16T20:01:30.344Z,91454.81
2022-11-16T20:04:01.042Z,91197.50
2022-11-16T20:06:33.303Z,91197.50
2022-11-16T20:09:08.924Z,91712.13
2022-11-16T20:11:39.352Z,92484.19
2022-11-16T20:14:09.731Z,92741.59
2022-11-16T20:16:40.064Z,92999.00
2022-11-16T20:19:10.257Z,93256.44
2022-11-16T20:21:41.696Z,93256.44
2022-11-16T20:24:13.134Z,93256.44
2022-11-16T20:26:44.794Z,93771.38
2022-11-16T20:29:14.211Z,93771.38
2022-11-16T20:31:47.019Z,93256.44
2022-11-16T20:34:18.596Z,93771.38
2022-11-16T20:36:50.870Z,93771.38
2022-11-16T20:39:21.151Z,94028.84
2022-11-16T20:41:50.459Z,93513.91
2022-11-16T20:44:22.362Z,93771.38
2022-11-16T20:46:52.579Z,93771.38
2022-11-16T20:49:22.029Z,94028.84
2022-11-16T20:51:52.227Z,94028.84
2022-11-16T20:54:21.449Z,94543.91
2022-11-16T20:56:52.908Z,94801.44
2022-11-16T20:59:21.886Z,94801.44
2022-11-16T21:01:53.720Z,95574.19
2022-11-16T21:04:23.406Z,95574.19
2022-11-16T21:06:54.257Z,96089.47
2022-11-16T21:09:25.860Z,96604.81
2022-11-16T21:12:12.133Z,96862.50
2022-11-16T21:14:40.940Z,96862.50
2022-11-16T21:17:10.236Z,97120.22
2022-11-16T21:19:38.738Z,97377.97
2022-11-16T21:22:12.372Z,97377.97
2022-11-16T21:24:41.088Z,97120.22
2022-11-16T21:27:09.725Z,96862.50
2022-11-16T21:29:38.458Z,97377.97
2022-11-16T21:32:07.168Z,97377.97
2022-11-16T21:34:39.948Z,97120.22
2022-11-16T21:37:11.056Z,97377.97
2022-11-16T21:39:39.727Z,97635.72
2022-11-16T21:42:08.757Z,97635.72
2022-11-16T21:44:43.608Z,97377.97
2022-11-16T21:47:15.500Z,97635.72
2022-11-16T21:50:08.700Z,97377.97
2022-11-16T21:52:34.867Z,97893.50
2022-11-16T21:55:03.669Z,97893.50
2022-11-16T21:57:32.647Z,97893.50
2022-11-16T22:00:02.364Z,98151.31
2022-11-16T22:02:40.135Z,97893.50
2022-11-16T22:05:27.521Z,98151.31
2022-11-16T22:07:58.427Z,98151.31
2022-11-16T22:10:27.037Z,98151.31
2022-11-16T22:12:55.552Z,98409.13
2022-11-16T22:15:24.116Z,98924.81
2022-11-16T22:17:52.923Z,99440.56
2022-11-16T22:20:22.823Z,99698.47
2022-11-16T22:22:51.710Z,100730.31
2022-11-16T22:25:22.124Z,101762.47
2022-11-16T22:28:20.221Z,102536.75
2022-11-16T22:30:40.137Z,103311.25
2022-11-16T22:33:09.279Z,103827.66
2022-11-16T22:35:38.747Z,104085.91
2022-11-16T22:38:07.515Z,104602.44
2022-11-16T22:40:37.761Z,105635.72
2022-11-16T22:43:06.621Z,106410.88
2022-11-16T22:45:35.489Z,106669.31
2022-11-16T22:48:04.361Z,107444.69
2022-11-16T22:50:33.612Z,107703.22
2022-11-16T22:53:02.581Z,108478.84
2022-11-16T22:55:31.366Z,108996.00
2022-11-16T22:58:01.702Z,109254.63
2022-11-16T23:00:31.009Z,110030.59
2022-11-16T23:02:59.724Z,110289.28
2022-11-16T23:05:28.681Z,110806.75
2022-11-16T23:07:58.591Z,111065.50
2022-11-16T23:10:27.382Z,111324.28
2022-11-16T23:13:13.538Z,111583.06
2022-11-16T23:15:52.610Z,112100.69
2022-11-16T23:18:21.829Z,112359.53
2022-11-16T23:21:08.035Z,112618.41
2022-11-16T23:23:53.664Z,112877.31
2022-11-16T23:26:42.693Z,113136.22
2022-11-16T23:29:12.128Z,113395.13
2022-11-16T23:31:42.452Z,113654.06
2022-11-16T23:34:11.060Z,113913.03
2022-11-16T23:36:39.674Z,114172.03
2022-11-16T23:39:08.527Z,114172.03
2022-11-16T23:41:54.465Z,114172.03
2022-11-16T23:44:23.095Z,114431.03
2022-11-16T23:46:53.086Z,114431.03
2022-11-16T23:49:21.669Z,114690.03
2022-11-16T23:51:50.039Z,114690.03
2022-11-16T23:54:18.468Z,114690.03
2022-11-16T23:56:47.001Z,114690.03
2022-11-16T23:59:15.539Z,114690.03
